Time;durP1;ratioP1;P1;durP2;ratioP2;P2;SDS_P1;SDS_P2;PMS_P1;PMS_P2;Temp;Humidity;BMP_temperature;BMP_pressure;BME280_temperature;BME280_humidity;BME280_pressure;Samples;Min_cycle;Max_cycle;Signal;HPM_P1;HPM_P2
2023/06/06 00:01:40;;;;;;;11.30;10.30;;;21.90;99.90;;;;;;6305370;22;20074;-62
2023/06/06 00:04:06;;;;;;;12.07;10.93;;;21.90;99.90;;;;;;6305500;22;20067;-62
2023/06/06 00:06:33;;;;;;;11.70;10.60;;;21.80;99.90;;;;;;6305424;22;20078;-62
2023/06/06 00:08:59;;;;;;;11.70;10.70;;;21.80;99.90;;;;;;6305575;22;20330;-62
2023/06/06 00:11:28;;;;;;;13.40;10.38;;;21.70;99.90;;;;;;6305244;22;20015;-62
2023/06/06 00:13:56;;;;;;;11.30;10.20;;;21.70;99.90;;;;;;6305220;22;19999;-62
2023/06/06 00:16:23;;;;;;;11.10;10.20;;;21.60;99.90;;;;;;6304844;22;20003;-62
2023/06/06 00:18:52;;;;;;;11.38;10.25;;;21.60;99.90;;;;;;6305095;22;20003;-62
2023/06/06 00:21:21;;;;;;;10.63;9.82;;;21.50;99.90;;;;;;6305776;22;20011;-62
2023/06/06 00:23:47;;;;;;;11.20;10.10;;;21.50;99.90;;;;;;6304962;22;19999;-63
2023/06/06 00:26:13;;;;;;;11.05;9.98;;;21.40;99.90;;;;;;6305074;22;20457;-62
2023/06/06 00:28:39;;;;;;;10.18;9.40;;;21.40;99.90;;;;;;6304945;22;20000;-62
2023/06/06 00:31:05;;;;;;;9.60;8.70;;;21.30;99.90;;;;;;6304618;22;20019;-61
2023/06/06 00:33:30;;;;;;;9.88;8.98;;;21.30;99.90;;;;;;6305407;22;20003;-63
2023/06/06 00:35:56;;;;;;;11.05;9.95;;;21.30;99.90;;;;;;6305263;22;20056;-62
2023/06/06 00:38:22;;;;;;;10.40;9.50;;;21.20;99.90;;;;;;6305427;22;20006;-62
2023/06/06 00:40:47;;;;;;;10.52;9.50;;;21.20;99.90;;;;;;6305206;22;20012;-62
2023/06/06 00:43:13;;;;;;;9.98;9.07;;;21.20;99.90;;;;;;6305012;22;20394;-62
2023/06/06 00:45:39;;;;;;;10.32;9.38;;;21.10;99.90;;;;;;6304481;22;20010;-62
2023/06/06 00:48:05;;;;;;;10.30;9.40;;;21.10;99.90;;;;;;6305331;22;20004;-62
2023/06/06 00:50:32;;;;;;;10.25;9.35;;;21.10;99.90;;;;;;6305184;22;20049;-63
2023/06/06 00:52:58;;;;;;;10.05;9.25;;;21.10;99.90;;;;;;6306687;22;20004;-62
2023/06/06 00:55:24;;;;;;;10.23;9.35;;;21.00;99.90;;;;;;6307514;22;20010;-62
2023/06/06 00:57:51;;;;;;;10.38;9.40;;;21.00;99.90;;;;;;6306863;22;20003;-63
2023/06/06 01:00:17;;;;;;;10.55;9.50;;;21.00;99.90;;;;;;6306558;22;20465;-62
2023/06/06 01:02:43;;;;;;;10.40;9.50;;;21.00;99.90;;;;;;6307085;22;20010;-62
2023/06/06 01:05:10;;;;;;;11.52;10.48;;;21.00;99.90;;;;;;6307377;22;19999;-62
2023/06/06 01:07:36;;;;;;;11.48;10.48;;;21.10;99.90;;;;;;6306894;22;20036;-62
2023/06/06 01:10:07;;;;;;;11.05;9.95;;;21.00;99.90;;;;;;6307096;22;19999;-63
2023/06/06 01:12:51;;;;;;;10.55;9.55;;;20.90;99.90;;;;;;6307155;22;20003;-63
2023/06/06 01:15:30;;;;;;;10.65;9.68;;;20.90;99.90;;;;;;6306395;22;20041;-62
2023/06/06 01:17:56;;;;;;;10.38;9.57;;;20.90;99.90;;;;;;6307437;22;20007;-63
2023/06/06 01:20:23;;;;;;;10.35;9.45;;;20.90;99.90;;;;;;6307006;22;20080;-63
2023/06/06 01:22:50;;;;;;;9.85;9.05;;;20.80;99.90;;;;;;6307150;22;20025;-63
2023/06/06 01:25:19;;;;;;;10.95;8.88;;;20.80;99.90;;;;;;6306855;22;20014;-63
2023/06/06 01:27:49;;;;;;;9.90;8.88;;;20.70;99.90;;;;;;6307076;22;20006;-62
2023/06/06 01:30:17;;;;;;;9.48;8.68;;;20.70;99.90;;;;;;6306091;22;20019;-62
2023/06/06 01:33:02;;;;;;;9.65;8.85;;;20.70;99.90;;;;;;6306826;22;20011;-62
2023/06/06 01:35:54;;;;;;;9.25;8.45;;;20.60;99.90;;;;;;6306462;22;20334;-63
2023/06/06 01:38:24;;;;;;;9.13;8.30;;;20.60;99.90;;;;;;6306894;22;20050;-63
2023/06/06 01:40:52;;;;;;;9.43;8.52;;;20.60;99.90;;;;;;6306847;22;20015;-63
2023/06/06 01:43:22;;;;;;;9.98;8.65;;;20.60;99.90;;;;;;6306304;22;20003;-62
2023/06/06 01:45:49;;;;;;;8.93;8.13;;;20.60;99.90;;;;;;6306624;22;20008;-62
2023/06/06 01:48:16;;;;;;;9.40;8.60;;;20.60;99.90;;;;;;6306632;22;19999;-64
2023/06/06 01:50:43;;;;;;;8.88;8.18;;;20.50;99.90;;;;;;6307275;22;20350;-62
2023/06/06 01:53:08;;;;;;;9.13;8.20;;;20.50;99.90;;;;;;6306387;22;20007;-63
2023/06/06 01:55:36;;;;;;;8.60;7.80;;;20.50;99.90;;;;;;6306861;22;20019;-62
2023/06/06 01:58:03;;;;;;;9.07;8.38;;;20.50;99.90;;;;;;6305948;22;20007;-62
2023/06/06 02:00:30;;;;;;;9.00;8.13;;;20.40;99.90;;;;;;6306152;22;20018;-62
2023/06/06 02:02:56;;;;;;;9.23;8.38;;;20.40;99.90;;;;;;6306521;22;20004;-63
2023/06/06 02:05:22;;;;;;;8.63;7.93;;;20.30;99.90;;;;;;6306405;22;20368;-62
2023/06/06 02:07:49;;;;;;;8.95;8.02;;;20.30;99.90;;;;;;6306303;22;20109;-63
2023/06/06 02:10:15;;;;;;;8.73;7.82;;;20.30;99.90;;;;;;6306653;22;20003;-62
2023/06/06 02:12:42;;;;;;;8.48;7.78;;;20.30;99.90;;;;;;6305887;22;20007;-63
2023/06/06 02:15:09;;;;;;;8.65;7.95;;;20.30;99.90;;;;;;6306344;22;20003;-63
2023/06/06 02:17:35;;;;;;;8.40;7.57;;;20.20;99.90;;;;;;6306398;22;20074;-63
2023/06/06 02:20:04;;;;;;;8.25;7.53;;;20.20;99.90;;;;;;6306330;22;20114;-62
2023/06/06 02:22:30;;;;;;;8.77;7.90;;;20.20;99.90;;;;;;6306329;22;20070;-62
2023/06/06 02:24:56;;;;;;;8.35;7.72;;;20.20;99.90;;;;;;6306330;22;20030;-63
2023/06/06 02:27:21;;;;;;;9.63;8.60;;;20.20;99.90;;;;;;6305559;22;20331;-63
2023/06/06 02:29:47;;;;;;;8.80;7.95;;;20.10;99.90;;;;;;6306493;22;20011;-62
2023/06/06 02:32:13;;;;;;;9.25;8.40;;;20.10;99.90;;;;;;6305752;22;20498;-63
2023/06/06 02:34:38;;;;;;;9.23;8.52;;;20.10;99.90;;;;;;6306098;22;20346;-62
2023/06/06 02:37:06;;;;;;;8.40;7.70;;;20.00;99.90;;;;;;6305956;22;20023;-62
2023/06/06 02:39:35;;;;;;;9.65;8.82;;;20.10;99.90;;;;;;6306030;22;20090;-63
2023/06/06 02:42:02;;;;;;;9.10;8.27;;;20.10;99.90;;;;;;6305663;22;20007;-62
2023/06/06 02:44:28;;;;;;;8.55;7.75;;;20.10;99.90;;;;;;6306337;22;20434;-63
2023/06/06 02:46:53;;;;;;;8.73;8.02;;;20.00;99.90;;;;;;6278358;22;20042;-63
2023/06/06 02:49:19;;;;;;;8.18;7.47;;;20.00;99.90;;;;;;6306303;22;19999;-63
2023/06/06 02:51:46;;;;;;;9.07;8.38;;;19.90;99.90;;;;;;6306228;22;20429;-61
2023/06/06 02:54:12;;;;;;;9.05;8.20;;;19.90;99.90;;;;;;6305750;22;20057;-63
2023/06/06 02:56:38;;;;;;;8.70;7.88;;;19.90;99.90;;;;;;6305717;22;20033;-62
2023/06/06 02:59:03;;;;;;;9.18;8.38;;;19.90;99.90;;;;;;6305830;22;20334;-62
2023/06/06 03:01:30;;;;;;;8.73;8.02;;;19.90;99.90;;;;;;6305694;22;20003;-63
2023/06/06 03:03:56;;;;;;;8.82;8.10;;;19.90;99.90;;;;;;6305940;22;20029;-63
2023/06/06 03:06:22;;;;;;;9.25;8.35;;;19.90;99.90;;;;;;6305801;22;20082;-63
2023/06/06 03:08:49;;;;;;;9.38;8.50;;;19.80;99.90;;;;;;6305627;22;20006;-63
2023/06/06 03:11:16;;;;;;;8.77;8.07;;;19.90;99.90;;;;;;6306044;22;20078;-63
2023/06/06 03:13:45;;;;;;;9.25;8.25;;;19.90;99.90;;;;;;6305514;22;20058;-63
2023/06/06 03:16:13;;;;;;;8.70;8.00;;;19.90;99.90;;;;;;6305334;22;20448;-63
2023/06/06 03:18:39;;;;;;;8.90;7.97;;;19.90;99.90;;;;;;6305734;22;19999;-64
2023/06/06 03:21:05;;;;;;;9.00;8.30;;;19.90;99.90;;;;;;6306031;22;20011;-64
2023/06/06 03:23:30;;;;;;;9.75;8.77;;;19.80;99.90;;;;;;6305902;22;20091;-65
2023/06/06 03:25:56;;;;;;;9.25;8.45;;;19.80;99.90;;;;;;6305268;22;20057;-64
2023/06/06 03:28:22;;;;;;;9.20;8.35;;;19.70;99.90;;;;;;6305380;22;19999;-63
2023/06/06 03:30:48;;;;;;;9.07;8.30;;;19.70;99.90;;;;;;6305397;22;20469;-64
2023/06/06 03:33:15;;;;;;;8.60;7.90;;;19.70;99.90;;;;;;6305891;22;20014;-65
2023/06/06 03:35:41;;;;;;;9.55;8.63;;;19.60;99.90;;;;;;6305737;22;20041;-64
2023/06/06 03:38:07;;;;;;;8.52;7.80;;;19.60;99.90;;;;;;6305757;22;20023;-64
2023/06/06 03:40:34;;;;;;;8.13;7.45;;;19.60;99.90;;;;;;6305074;22;20080;-64
2023/06/06 03:42:59;;;;;;;8.07;7.47;;;19.60;99.90;;;;;;6305486;22;20006;-63
2023/06/06 03:45:25;;;;;;;8.43;7.72;;;19.60;99.90;;;;;;6305779;22;20007;-64
2023/06/06 03:47:51;;;;;;;8.23;7.53;;;19.60;99.90;;;;;;6305162;22;20023;-63
2023/06/06 03:50:18;;;;;;;8.73;8.02;;;19.60;99.90;;;;;;6305493;22;20006;-64
2023/06/06 03:52:45;;;;;;;8.57;7.78;;;19.60;99.90;;;;;;6277890;22;20037;-64
2023/06/06 03:55:11;;;;;;;8.38;7.72;;;19.60;99.90;;;;;;6305221;22;20064;-63
2023/06/06 03:57:37;;;;;;;8.35;7.75;;;19.50;99.90;;;;;;6305144;22;20003;-63
2023/06/06 04:00:11;;;;;;;7.82;7.22;;;19.50;99.90;;;;;;6305182;22;20410;-64
2023/06/06 04:02:46;;;;;;;8.23;7.63;;;19.50;99.90;;;;;;6305681;22;19995;-62
2023/06/06 04:05:13;;;;;;;8.73;7.93;;;19.50;99.90;;;;;;6305126;22;20133;-64
2023/06/06 04:07:39;;;;;;;8.40;7.70;;;19.40;99.90;;;;;;6305874;22;20004;-64
2023/06/06 04:10:05;;;;;;;9.10;8.20;;;19.30;99.90;;;;;;6304950;22;20346;-64
2023/06/06 04:12:31;;;;;;;8.15;7.45;;;19.30;99.90;;;;;;6277951;22;19999;-64
2023/06/06 04:14:57;;;;;;;8.48;7.70;;;19.30;99.90;;;;;;6305365;22;20015;-63
2023/06/06 04:17:26;;;;;;;8.90;8.15;;;19.30;99.90;;;;;;6304956;22;20034;-64
2023/06/06 04:19:52;;;;;;;11.38;8.85;;;19.20;99.90;;;;;;6305101;22;20011;-64
2023/06/06 04:22:19;;;;;;;9.63;8.55;;;19.20;99.90;;;;;;6305365;22;20395;-64
2023/06/06 04:24:46;;;;;;;9.07;8.27;;;19.10;99.90;;;;;;6304666;22;20006;-64
2023/06/06 04:27:12;;;;;;;9.80;8.15;;;19.10;99.90;;;;;;6305023;22;20331;-64
2023/06/06 04:29:40;;;;;;;11.80;8.35;;;19.20;99.90;;;;;;6305330;22;20000;-64
2023/06/06 04:32:10;;;;;;;11.68;8.07;;;19.20;99.90;;;;;;6304685;22;20019;-64
2023/06/06 04:34:41;;;;;;;10.48;8.57;;;19.10;99.90;;;;;;6305318;22;20072;-64
2023/06/06 04:37:08;;;;;;;9.27;8.38;;;19.10;99.90;;;;;;6305245;22;20053;-64
2023/06/06 04:39:35;;;;;;;9.35;8.55;;;19.10;99.90;;;;;;6304551;22;20063;-64
2023/06/06 04:42:07;;;;;;;8.73;7.78;;;19.10;99.90;;;;;;6305027;22;20426;-64
2023/06/06 04:44:42;;;;;;;9.00;8.20;;;19.10;99.90;;;;;;6305083;22;20014;-64
2023/06/06 04:47:12;;;;;;;9.70;8.93;;;19.10;99.90;;;;;;6304938;22;20511;-65
2023/06/06 04:49:40;;;;;;;9.88;8.98;;;19.10;99.90;;;;;;6305311;22;20003;-66
2023/06/06 04:52:08;;;;;;;10.00;9.20;;;19.10;99.90;;;;;;6304533;22;20006;-64
2023/06/06 04:54:35;;;;;;;11.32;10.30;;;19.00;99.90;;;;;;6305525;22;20003;-63
2023/06/06 04:57:00;;;;;;;11.30;10.30;;;19.00;99.90;;;;;;6303788;22;20086;-63
2023/06/06 04:59:27;;;;;;;12.25;11.27;;;19.00;99.90;;;;;;6304035;22;20049;-65
2023/06/06 05:01:55;;;;;;;13.05;11.80;;;19.10;99.90;;;;;;6276095;22;20011;-64
2023/06/06 05:04:21;;;;;;;12.10;11.00;;;19.10;99.90;;;;;;6304246;22;20339;-65
2023/06/06 05:06:47;;;;;;;12.45;11.35;;;19.10;99.90;;;;;;6304596;22;20322;-65
2023/06/06 05:09:13;;;;;;;11.05;10.23;;;19.00;99.90;;;;;;6304466;22;20000;-65
2023/06/06 05:11:48;;;;;;;10.85;9.95;;;19.00;99.90;;;;;;6304551;22;20003;-64
2023/06/06 05:14:15;;;;;;;11.30;10.38;;;19.00;99.90;;;;;;6305354;22;20372;-65
2023/06/06 05:16:41;;;;;;;11.77;10.65;;;19.00;99.90;;;;;;6304517;22;20410;-64
2023/06/06 05:19:07;;;;;;;11.38;10.38;;;19.00;99.90;;;;;;6304762;22;20035;-65
2023/06/06 05:21:33;;;;;;;10.98;9.90;;;19.00;99.90;;;;;;6304345;22;20014;-65
2023/06/06 05:23:59;;;;;;;11.27;10.27;;;19.10;99.90;;;;;;6305600;22;20008;-65
2023/06/06 05:26:25;;;;;;;12.18;11.00;;;19.10;99.90;;;;;;6305006;22;20338;-65
2023/06/06 05:28:51;;;;;;;11.45;10.38;;;19.10;99.90;;;;;;6304474;22;20061;-65
2023/06/06 05:31:20;;;;;;;11.43;10.32;;;19.10;99.90;;;;;;6305153;22;20019;-65
2023/06/06 05:33:47;;;;;;;11.32;10.38;;;19.20;99.90;;;;;;6304572;22;20007;-65
2023/06/06 05:36:12;;;;;;;11.40;10.40;;;19.20;99.90;;;;;;6305050;22;20361;-65
2023/06/06 05:38:38;;;;;;;10.95;9.95;;;19.20;99.90;;;;;;6305991;22;20074;-65
2023/06/06 05:41:04;;;;;;;10.98;10.07;;;19.20;99.90;;;;;;6306308;22;20386;-65
2023/06/06 05:43:33;;;;;;;10.30;9.20;;;19.20;99.90;;;;;;6306722;22;20030;-65
2023/06/06 05:46:01;;;;;;;9.82;9.02;;;19.30;99.90;;;;;;6306578;22;20003;-65
2023/06/06 05:48:28;;;;;;;9.98;9.10;;;19.30;99.90;;;;;;6306519;22;20331;-65
2023/06/06 05:50:53;;;;;;;9.50;8.60;;;19.30;99.90;;;;;;6306142;22;20003;-65
2023/06/06 05:53:21;;;;;;;9.02;8.23;;;19.30;99.90;;;;;;6306154;22;20029;-65
2023/06/06 05:55:47;;;;;;;9.60;8.70;;;19.40;99.90;;;;;;6306345;22;20030;-65
2023/06/06 05:58:12;;;;;;;10.15;8.65;;;19.40;99.90;;;;;;6306915;22;20006;-65
2023/06/06 06:00:38;;;;;;;10.00;8.98;;;19.50;99.90;;;;;;6306361;22;20018;-65
2023/06/06 06:03:04;;;;;;;10.27;9.27;;;19.50;99.90;;;;;;6306971;22;20010;-65
2023/06/06 06:05:31;;;;;;;10.20;9.20;;;19.50;99.90;;;;;;6306702;22;20007;-65
2023/06/06 06:08:01;;;;;;;10.25;9.32;;;19.50;99.90;;;;;;6306505;22;20376;-65
2023/06/06 06:10:28;;;;;;;11.07;9.52;;;19.50;99.90;;;;;;6306623;22;20386;-65
2023/06/06 06:12:55;;;;;;;12.35;11.05;;;19.50;99.90;;;;;;6306797;22;20022;-65
2023/06/06 06:15:21;;;;;;;11.52;10.43;;;19.50;99.90;;;;;;6306263;22;20003;-65
2023/06/06 06:17:47;;;;;;;10.75;9.75;;;19.50;99.90;;;;;;6306112;22;20399;-64
2023/06/06 06:20:16;;;;;;;10.80;9.40;;;19.50;99.90;;;;;;6306401;22;20327;-65
2023/06/06 06:22:43;;;;;;;10.45;9.38;;;19.50;99.90;;;;;;6306103;22;20090;-64
2023/06/06 06:25:12;;;;;;;9.63;8.73;;;19.60;99.90;;;;;;6306216;22;19999;-64
2023/06/06 06:27:39;;;;;;;8.85;8.05;;;19.60;99.90;;;;;;6306465;22;20445;-65
2023/06/06 06:30:06;;;;;;;8.95;7.60;;;19.70;99.90;;;;;;6306132;22;20338;-65
2023/06/06 06:32:36;;;;;;;8.20;7.50;;;19.70;99.90;;;;;;6306096;22;20003;-65
2023/06/06 06:35:02;;;;;;;9.10;8.20;;;19.70;99.90;;;;;;6305840;22;20365;-64
2023/06/06 06:37:31;;;;;;;7.88;6.78;;;19.80;99.90;;;;;;6305892;22;20505;-65
2023/06/06 06:40:00;;;;;;;7.93;7.03;;;19.80;99.90;;;;;;6305988;22;20007;-65
2023/06/06 06:42:26;;;;;;;8.13;6.50;;;19.90;99.90;;;;;;6306453;22;20010;-65
2023/06/06 06:44:52;;;;;;;7.68;6.50;;;20.00;99.90;;;;;;6278657;22;20330;-65
2023/06/06 06:47:18;;;;;;;7.30;6.28;;;20.00;99.90;;;;;;6306285;22;20011;-65
2023/06/06 06:49:44;;;;;;;7.95;6.35;;;20.10;99.90;;;;;;6304831;22;20011;-64
2023/06/06 06:52:15;;;;;;;6.95;5.88;;;20.20;99.90;;;;;;6305639;22;19999;-64
2023/06/06 06:54:54;;;;;;;8.00;5.90;;;20.30;99.90;;;;;;6306674;22;20374;-65
2023/06/06 06:57:23;;;;;;;7.15;6.00;;;20.30;99.90;;;;;;6306124;22;20003;-65
2023/06/06 06:59:49;;;;;;;6.82;6.18;;;20.40;99.90;;;;;;6306095;22;20015;-65
2023/06/06 07:02:15;;;;;;;7.70;6.63;;;20.40;99.90;;;;;;6306463;22;20030;-65
2023/06/06 07:04:42;;;;;;;8.38;6.97;;;20.50;99.90;;;;;;6305638;22;20003;-65
2023/06/06 07:07:07;;;;;;;9.65;6.55;;;20.50;99.90;;;;;;6305366;22;20464;-65
2023/06/06 07:09:33;;;;;;;7.68;6.68;;;20.50;99.90;;;;;;6305718;22;20003;-65
2023/06/06 07:11:59;;;;;;;8.48;6.05;;;20.50;99.90;;;;;;6305745;22;20010;-65
2023/06/06 07:14:29;;;;;;;8.05;6.20;;;20.60;99.90;;;;;;6305681;22;20010;-65
2023/06/06 07:16:55;;;;;;;6.18;5.65;;;20.60;99.90;;;;;;6305953;22;20003;-64
2023/06/06 07:19:20;;;;;;;10.30;5.68;;;20.60;99.90;;;;;;6305525;22;20007;-65
2023/06/06 07:21:47;;;;;;;6.00;5.40;;;20.60;99.90;;;;;;6305498;22;20030;-65
2023/06/06 07:24:12;;;;;;;6.57;5.43;;;20.70;99.90;;;;;;6305512;22;20079;-65
2023/06/06 07:26:38;;;;;;;6.60;5.90;;;20.70;99.90;;;;;;6305773;22;20035;-65
2023/06/06 07:29:04;;;;;;;5.90;5.22;;;20.70;99.90;;;;;;6305527;22;20092;-65
2023/06/06 07:31:30;;;;;;;5.80;5.22;;;20.70;99.90;;;;;;6304871;22;20022;-65
2023/06/06 07:33:58;;;;;;;7.15;5.50;;;20.70;99.90;;;;;;6305468;22;20384;-65
2023/06/06 07:36:25;;;;;;;5.75;5.25;;;20.70;99.90;;;;;;6305333;22;20074;-65
2023/06/06 07:38:51;;;;;;;6.60;5.60;;;20.80;99.90;;;;;;6305312;22;20438;-65
2023/06/06 07:41:16;;;;;;;8.63;5.68;;;20.80;99.90;;;;;;6305648;22;20004;-65
2023/06/06 07:43:42;;;;;;;6.47;5.80;;;20.80;99.90;;;;;;6305363;22;20469;-64
2023/06/06 07:46:08;;;;;;;6.32;5.50;;;20.80;99.90;;;;;;6304715;22;20003;-65
2023/06/06 07:48:34;;;;;;;6.13;5.55;;;20.90;99.90;;;;;;6305286;22;20006;-65
2023/06/06 07:51:00;;;;;;;6.63;5.43;;;20.90;99.90;;;;;;6305126;22;20007;-65
2023/06/06 07:53:25;;;;;;;7.10;5.43;;;21.00;99.90;;;;;;6305391;22;20044;-65
2023/06/06 07:55:51;;;;;;;5.95;4.90;;;21.10;99.90;;;;;;6305612;22;19999;-65
2023/06/06 07:58:22;;;;;;;7.60;5.70;;;21.20;99.90;;;;;;6305601;22;20049;-65
2023/06/06 08:00:49;;;;;;;7.28;5.28;;;21.20;99.90;;;;;;6303911;22;20007;-65
2023/06/06 08:03:15;;;;;;;6.75;5.38;;;21.30;99.90;;;;;;6305571;22;20117;-65
2023/06/06 08:05:40;;;;;;;6.95;5.55;;;21.40;99.90;;;;;;6304921;22;20027;-65
2023/06/06 08:08:06;;;;;;;5.50;5.00;;;21.50;99.90;;;;;;6305057;22;19996;-65
2023/06/06 08:10:32;;;;;;;5.20;4.80;;;21.60;99.90;;;;;;6305781;22;20491;-65
2023/06/06 08:13:00;;;;;;;6.32;4.95;;;21.70;99.90;;;;;;6305256;22;20074;-65
2023/06/06 08:15:25;;;;;;;5.38;4.80;;;21.70;99.90;;;;;;6304835;22;20003;-65
2023/06/06 08:17:51;;;;;;;5.55;5.05;;;21.80;99.90;;;;;;6304917;22;20334;-64
2023/06/06 08:20:17;;;;;;;6.03;5.28;;;21.80;99.90;;;;;;6304906;22;20342;-64
2023/06/06 08:22:52;;;;;;;6.68;5.10;;;21.80;99.90;;;;;;6306216;22;20003;-65
2023/06/06 08:25:17;;;;;;;5.63;4.90;;;21.90;99.90;;;;;;6305085;22;20010;-64
2023/06/06 08:27:43;;;;;;;6.75;5.40;;;22.00;99.90;;;;;;6305215;22;20033;-64
2023/06/06 08:30:09;;;;;;;5.93;5.10;;;22.10;99.90;;;;;;6304584;22;20057;-65
2023/06/06 08:32:37;;;;;;;5.78;4.75;;;22.10;99.90;;;;;;6304870;22;20413;-65
2023/06/06 08:35:03;;;;;;;5.25;4.70;;;22.20;99.90;;;;;;6305521;22;20007;-65
2023/06/06 08:37:30;;;;;;;6.88;4.75;;;22.20;99.90;;;;;;6305111;22;19996;-65
2023/06/06 08:39:55;;;;;;;5.45;4.90;;;22.30;99.90;;;;;;6305287;22;20354;-65
2023/06/06 08:42:22;;;;;;;5.70;5.10;;;22.50;99.90;;;;;;6305208;22;20017;-64
2023/06/06 08:44:49;;;;;;;5.25;4.78;;;22.60;99.90;;;;;;6305212;22;20034;-64
2023/06/06 08:47:17;;;;;;;5.00;4.47;;;22.50;99.90;;;;;;6305476;22;20009;-65
2023/06/06 08:49:43;;;;;;;5.80;5.20;;;22.60;99.90;;;;;;6305351;22;20003;-65
2023/06/06 08:52:09;;;;;;;5.57;5.10;;;22.70;99.90;;;;;;6304760;22;20007;-64
2023/06/06 08:54:37;;;;;;;5.43;4.93;;;22.80;99.90;;;;;;6305022;22;20033;-64
2023/06/06 08:57:08;;;;;;;5.75;4.70;;;22.90;99.90;;;;;;6305615;22;20065;-65
2023/06/06 08:59:37;;;;;;;5.43;4.93;;;22.90;99.90;;;;;;6304529;22;20015;-65
2023/06/06 09:02:05;;;;;;;5.70;5.10;;;22.90;99.90;;;;;;6277537;22;20007;-65
2023/06/06 09:04:33;;;;;;;5.72;5.22;;;22.90;99.90;;;;;;6305534;22;19999;-64
2023/06/06 09:07:04;;;;;;;5.88;5.35;;;22.90;99.90;;;;;;6305253;22;20004;-65
2023/06/06 09:09:33;;;;;;;6.13;5.38;;;23.10;99.90;;;;;;6305187;22;20008;-65
2023/06/06 09:11:59;;;;;;;5.53;5.03;;;23.10;99.90;;;;;;6305297;22;20327;-65
2023/06/06 09:14:25;;;;;;;10.07;7.22;;;23.30;99.90;;;;;;6306849;22;19999;-64
2023/06/06 09:16:52;;;;;;;9.43;6.70;;;23.20;99.90;;;;;;6306548;22;20007;-65
2023/06/06 09:19:23;;;;;;;8.02;7.22;;;23.20;99.90;;;;;;6280110;22;20409;-65
2023/06/06 09:21:49;;;;;;;10.88;6.60;;;23.20;99.90;;;;;;6306683;22;20015;-65
2023/06/06 09:24:18;;;;;;;8.95;7.13;;;23.20;99.90;;;;;;6307209;22;20082;-65
2023/06/06 09:26:45;;;;;;;8.50;7.13;;;23.20;99.90;;;;;;6306553;22;19999;-65
2023/06/06 09:29:13;;;;;;;8.98;7.50;;;23.30;99.90;;;;;;6306403;22;20011;-65
2023/06/06 09:31:40;;;;;;;8.18;7.35;;;23.40;99.90;;;;;;6306492;22;20061;-65
2023/06/06 09:34:10;;;;;;;8.68;7.65;;;23.50;99.90;;;;;;6306690;22;20025;-65
2023/06/06 09:36:41;;;;;;;8.98;8.07;;;23.50;99.90;;;;;;6307463;22;20395;-65
2023/06/06 09:39:15;;;;;;;12.57;9.00;;;23.60;99.90;;;;;;6306565;22;20045;-65
2023/06/06 09:41:47;;;;;;;13.60;10.65;;;23.70;99.90;;;;;;6306906;22;20012;-65
2023/06/06 09:44:20;;;;;;;66.20;42.38;;;23.80;99.90;;;;;;6306102;22;20003;-65
2023/06/06 09:46:46;;;;;;;80.75;48.92;;;23.90;99.90;;;;;;6307005;22;20064;-65
2023/06/06 09:49:15;;;;;;;97.13;63.03;;;23.90;99.90;;;;;;6306375;22;19999;-65
2023/06/06 09:51:42;;;;;;;76.00;51.45;;;23.90;99.90;;;;;;6306517;22;20003;-65
2023/06/06 09:54:11;;;;;;;49.45;37.30;;;24.10;99.90;;;;;;6306790;22;20007;-65
2023/06/06 09:56:39;;;;;;;32.75;25.58;;;24.10;99.90;;;;;;6306863;22;20010;-65
2023/06/06 09:59:07;;;;;;;17.50;11.38;;;24.20;99.90;;;;;;6306285;22;20003;-65
2023/06/06 10:01:35;;;;;;;20.60;14.07;;;24.20;99.90;;;;;;6306617;22;20027;-65
2023/06/06 10:04:03;;;;;;;11.52;8.68;;;24.40;99.90;;;;;;6307216;22;20009;-65
2023/06/06 10:06:38;;;;;;;10.75;8.77;;;24.40;99.90;;;;;;6278859;22;20434;-65
2023/06/06 10:09:07;;;;;;;9.13;7.15;;;24.40;99.90;;;;;;6306379;22;20006;-65
2023/06/06 10:11:36;;;;;;;8.63;6.57;;;24.50;99.90;;;;;;6278544;22;20494;-65
2023/06/06 10:14:04;;;;;;;7.10;6.40;;;24.50;99.90;;;;;;6306799;22;19999;-65
2023/06/06 10:16:31;;;;;;;7.65;6.60;;;24.60;99.90;;;;;;6306120;22;20408;-65
2023/06/06 10:18:57;;;;;;;10.80;6.72;;;24.70;99.90;;;;;;6306282;22;20045;-64
2023/06/06 10:21:24;;;;;;;6.90;6.20;;;24.80;99.90;;;;;;6306612;22;20019;-65
2023/06/06 10:23:51;;;;;;;7.43;6.60;;;24.80;99.90;;;;;;6305418;22;20056;-65
2023/06/06 10:26:32;;;;;;;7.72;6.78;;;24.90;99.90;;;;;;6306317;22;20035;-65
2023/06/06 10:28:57;;;;;;;7.82;6.30;;;25.10;99.90;;;;;;6306257;22;20793;-65
2023/06/06 10:31:44;;;;;;;9.07;7.53;;;25.10;99.90;;;;;;6306035;22;20058;-65
2023/06/06 10:34:18;;;;;;;8.05;7.00;;;25.30;99.90;;;;;;6306030;22;20010;-64
2023/06/06 10:36:44;;;;;;;8.45;7.25;;;25.40;99.90;;;;;;6306057;22;20026;-65
2023/06/06 10:39:24;;;;;;;8.85;7.93;;;25.50;99.90;;;;;;6306131;22;20397;-65
2023/06/06 10:41:51;;;;;;;8.90;7.22;;;25.70;99.90;;;;;;6305635;22;20464;-65
2023/06/06 10:44:41;;;;;;;9.40;7.10;;;25.60;99.90;;;;;;6305666;22;19999;-65
2023/06/06 10:47:32;;;;;;;7.68;6.88;;;25.60;99.90;;;;;;6306249;22;20045;-64
2023/06/06 10:50:11;;;;;;;8.43;6.32;;;25.70;99.90;;;;;;6305939;22;20004;-65
2023/06/06 10:52:46;;;;;;;8.32;7.53;;;25.90;99.90;;;;;;6306658;22;20007;-64
2023/06/06 10:55:24;;;;;;;9.60;7.80;;;25.80;99.90;;;;;;6306148;22;20062;-65
2023/06/06 10:57:55;;;;;;;6.93;6.00;;;25.80;99.90;;;;;;6305670;22;20003;-65
2023/06/06 11:00:25;;;;;;;10.40;5.68;;;25.90;99.90;;;;;;6306134;22;20015;-64
2023/06/06 11:02:55;;;;;;;5.78;5.18;;;26.20;99.90;;;;;;6305953;22;20009;-64
2023/06/06 11:05:21;;;;;;;4.82;4.43;;;26.30;99.90;;;;;;6305662;22;20021;-64
2023/06/06 11:07:49;;;;;;;6.40;4.63;;;26.40;99.90;;;;;;6305522;22;20007;-64
2023/06/06 11:10:20;;;;;;;7.07;5.70;;;26.40;99.90;;;;;;6305733;22;20007;-65
2023/06/06 11:12:49;;;;;;;6.65;6.05;;;26.40;99.90;;;;;;6305565;22;20073;-64
2023/06/06 11:15:32;;;;;;;5.55;5.03;;;26.40;99.90;;;;;;6305981;22;20003;-65
2023/06/06 11:18:03;;;;;;;6.63;6.03;;;26.50;99.90;;;;;;6305873;22;20003;-64
2023/06/06 11:20:38;;;;;;;7.85;6.50;;;26.60;99.90;;;;;;6305684;22;20011;-64
2023/06/06 11:23:05;;;;;;;7.53;6.63;;;26.50;99.90;;;;;;6306421;22;20057;-64
2023/06/06 11:25:38;;;;;;;12.43;11.10;;;26.60;99.90;;;;;;6305519;22;20004;-64
2023/06/06 11:28:05;;;;;;;9.77;8.30;;;26.80;99.90;;;;;;6305146;22;20037;-64
2023/06/06 11:30:34;;;;;;;9.45;7.55;;;27.10;99.90;;;;;;6305742;22;20014;-64
2023/06/06 11:33:01;;;;;;;7.60;6.13;;;27.30;99.90;;;;;;6306375;22;20007;-64
2023/06/06 11:35:32;;;;;;;6.60;5.00;;;27.40;99.90;;;;;;6305332;22;20361;-64
2023/06/06 11:37:58;;;;;;;6.25;4.63;;;27.50;99.90;;;;;;6305071;22;20082;-64
2023/06/06 11:40:28;;;;;;;6.40;5.35;;;27.30;99.90;;;;;;6305320;22;20095;-64
2023/06/06 11:42:54;;;;;;;5.85;5.30;;;27.60;99.90;;;;;;6305289;22;20054;-65
2023/06/06 11:45:20;;;;;;;6.35;5.72;;;27.70;99.90;;;;;;6305717;22;20003;-65
2023/06/06 11:47:46;;;;;;;8.15;5.35;;;27.60;99.90;;;;;;6305190;22;20029;-64
2023/06/06 11:50:13;;;;;;;5.55;5.07;;;27.50;99.90;;;;;;6277896;22;20052;-64
2023/06/06 11:52:49;;;;;;;7.50;5.03;;;27.50;99.90;;;;;;6305810;22;20082;-64
2023/06/06 11:55:15;;;;;;;8.13;6.03;;;27.30;99.90;;;;;;6305289;22;20338;-65
2023/06/06 11:57:42;;;;;;;6.25;5.65;;;27.00;99.90;;;;;;6304798;22;20057;-64
2023/06/06 12:00:19;;;;;;;7.60;5.35;;;26.80;99.90;;;;;;6305241;22;20011;-64
2023/06/06 12:02:52;;;;;;;6.97;4.95;;;26.70;99.90;;;;;;6305877;22;19995;-65
2023/06/06 12:05:20;;;;;;;5.95;5.35;;;26.70;99.90;;;;;;6305273;22;20018;-65
2023/06/06 12:07:48;;;;;;;6.38;5.55;;;26.60;99.90;;;;;;6304960;22;20065;-65
2023/06/06 12:10:22;;;;;;;5.68;5.15;;;26.50;99.90;;;;;;6305306;22;20345;-65
2023/06/06 12:12:48;;;;;;;6.05;5.35;;;26.40;99.90;;;;;;6305248;22;20082;-66
2023/06/06 12:15:14;;;;;;;7.57;5.60;;;26.40;99.90;;;;;;6305249;22;20006;-66
2023/06/06 12:17:40;;;;;;;8.82;5.40;;;26.40;99.90;;;;;;6305405;22;20003;-65
2023/06/06 12:20:07;;;;;;;12.52;7.70;;;26.30;99.90;;;;;;6305299;22;20059;-65
2023/06/06 12:22:34;;;;;;;14.48;6.63;;;26.20;99.90;;;;;;6304975;22;20010;-65
2023/06/06 12:25:00;;;;;;;8.35;5.90;;;26.10;99.90;;;;;;6277797;22;20070;-65
2023/06/06 12:27:26;;;;;;;5.13;4.57;;;25.80;99.90;;;;;;6305144;22;20034;-65
2023/06/06 12:29:54;;;;;;;5.10;3.72;;;25.10;99.90;;;;;;6304951;22;20003;-67
2023/06/06 12:32:25;;;;;;;5.10;3.40;;;24.80;99.90;;;;;;6305828;22;20012;-66
2023/06/06 12:35:02;;;;;;;4.18;3.10;;;24.60;99.90;;;;;;6305339;22;20004;-66
2023/06/06 12:37:39;;;;;;;2.85;2.65;;;24.50;99.90;;;;;;6304786;22;20042;-66
2023/06/06 12:40:17;;;;;;;2.63;2.42;;;24.60;99.90;;;;;;6305001;22;20011;-66
2023/06/06 12:42:50;;;;;;;3.63;2.15;;;24.40;99.90;;;;;;6305556;22;20528;-66
2023/06/06 12:45:16;;;;;;;2.75;2.22;;;24.30;99.90;;;;;;6305349;22;20007;-65
2023/06/06 12:47:41;;;;;;;7.47;3.45;;;24.20;99.90;;;;;;6305979;22;20025;-65